Flight Track Log - Related Links

Times and Time Zones

All times are in EDT time to prevent confusion due to time zone crossing. See the N150TH flight status page for this flight to view local times or setup timezone preferences in your user account.

Time Position Orientation Groundspeed Altitude Reporting Facility
EDT Latitude Longitude Course Direction KTS MPH feet Rate Location/Type
Sun 05:17:55 PM 42.7089 -73.8236 193° South 84 97 1,700  Level Boston Center
Sun 05:18:05 PM 42.7078 -73.8272 247° West 77 89 1,800 716 Climbing Boston Center
Sun 05:19:02 PM 42.6872 -73.8367 199° South 78 90 2,500 683 Climbing Boston Center
Sun 05:20:08 PM 42.6644 -73.8481 200° South 79 91 3,200 609 Climbing Boston Center
Sun 05:21:10 PM 42.6417 -73.8556 194° South 81 93 3,800 541 Climbing Boston Center
Sun 05:22:10 PM 42.6164 -73.8594 186° South 92 106 4,300 522 Climbing Boston Center
Sun 05:23:00 PM 42.5001 -73.8824 193° South  Level Estimated
Sun 05:23:05 PM 42.5917 -73.8656 190° South 96 110 4,800  Level Boston Center
Sun 05:24:06 PM 42.5697 -73.8669 183° South 73 84 5,400 496 Climbing Boston Center
Sun 05:25:06 PM 42.5500 -73.8689 184° South 71 82 5,800 343 Climbing Boston Center
Sun 05:25:16 PM 42.5442 -73.8664 162° South 85 98 5,800 333 Level Boston Center
Sun 05:26:18 PM 42.5161 -73.8667 180° South 99 114 6,200 375 Climbing Boston Center
Sun 05:27:08 PM 42.4936 -73.8731 192° South 98 113 6,500 393 Climbing Boston Center
Sun 05:27:19 PM 42.4900 -73.8750 202° Southwest 99 114 6,600  Climbing Boston Center
Sun 05:28:08 PM 42.4617 -73.8825 191° South 115 132 6,500 -97 Descending Boston Center
Sun 05:28:21 PM 42.4550 -73.8833 185° South 117 135 6,500  Level Boston Center
Sun 05:29:09 PM 42.4283 -73.8889 189° South 122 140 6,500  Level Boston Center
Sun 05:29:22 PM 42.4233 -73.8897 187° South 118 136 6,500  Level Boston Center
Sun 05:30:10 PM 42.3989 -73.8964 191° South 110 127 6,500  Level Boston Center
Sun 05:30:24 PM 42.3931 -73.8975 188° South 114 131 6,500  Level Boston Center
Sun 05:31:25 PM 42.3608 -73.9075 193° South 111 128 6,500 -49 Level Boston Center
Sun 05:32:27 PM 42.3319 -73.9172 194° South 110 127 6,400  Descending Boston Center
Sun 05:33:29 PM 42.3022 -73.9275 194° South 108 124 6,500 49 Climbing Boston Center
Sun 05:34:30 PM 42.2725 -73.9389 196° South 104 120 6,500  Level Boston Center
Sun 05:35:32 PM 42.2436 -73.9483 194° South 106 122 6,500  Level Boston Center
Sun 05:36:33 PM 42.2172 -73.9592 197° South 103 119 6,500  Level Boston Center
Sun 05:37:35 PM 42.1850 -73.9708 195° South 106 122 6,500  Level Boston Center
Sun 05:38:36 PM 42.1544 -73.9808 194° South 111 128 6,500  Level Boston Center
Sun 05:39:38 PM 42.1256 -73.9900 193° South 110 127 6,500  Level Boston Center
Sun 05:40:40 PM 42.0936 -74.0019 196° South 111 128 6,500  Level Boston Center
Sun 05:41:41 PM 42.0642 -74.0103 192° South 108 124 6,500  Level Boston Center
Sun 05:42:43 PM 42.0339 -74.0203 194° South 109 125 6,500  Level Boston Center
Sun 05:43:44 PM 42.0050 -74.0303 194° South 109 125 6,500  Level Boston Center
Sun 05:44:46 PM 41.9714 -74.0422 195° South 110 127 6,500  Level Boston Center
Sun 05:45:48 PM 41.9403 -74.0528 194° South 113 130 6,500  Level Boston Center
Sun 05:46:50 PM 41.9108 -74.0633 195° South 113 130 6,500  Level Boston Center
Sun 05:47:51 PM 41.8772 -74.0750 194° South 113 130 6,500  Level Boston Center
Sun 05:48:53 PM 41.8469 -74.0864 196° South 113 130 6,500  Level Boston Center
Sun 05:49:54 PM 41.8167 -74.0978 196° South 112 129 6,500  Level Boston Center
Sun 05:50:56 PM 41.7847 -74.1097 196° South 112 129 6,500  Level Boston Center
Sun 05:51:58 PM 41.7544 -74.1219 197° South 112 129 6,500  Level Boston Center
Sun 05:52:59 PM 41.7217 -74.1342 196° South 113 130 6,500  Level Boston Center
Sun 05:54:01 PM 41.6911 -74.1461 196° South 113 130 6,500  Level Boston Center
Sun 05:55:03 PM 41.6597 -74.1575 195° South 115 132 6,500  Level Boston Center
Sun 05:56:04 PM 41.6281 -74.1711 198° South 113 130 6,500  Level Boston Center
Sun 05:57:06 PM 41.5967 -74.1831 196° South 115 132 6,500  Level Boston Center
Sun 05:58:07 PM 41.5656 -74.1944 195° South 115 132 6,500  Level Boston Center
Sun 05:59:10 PM 41.5322 -74.2050 193° South 115 132 6,500  Level Boston Center
Sun 06:00:12 PM 41.5006 -74.2158 194° South 116 133 6,500  Level Boston Center
Sun 06:01:13 PM 41.4661 -74.2256 192° South 116 133 6,500  Level Boston Center
Sun 06:02:15 PM 41.4342 -74.2344 192° South 116 133 6,500  Level Boston Center
Sun 06:03:16 PM 41.3992 -74.2461 194° South 117 135 6,500  Level Boston Center
Sun 06:04:18 PM 41.3683 -74.2561 194° South 115 132 6,500  Level Boston Center
Sun 06:05:20 PM 41.3378 -74.2656 193° South 115 132 6,500  Level Boston Center
Sun 06:06:21 PM 41.3047 -74.2764 194° South 114 131 6,500  Level Boston Center
Sun 06:07:23 PM 41.2736 -74.2869 194° South 112 129 6,500 -97 Level Boston Center
Sun 06:08:25 PM 41.2417 -74.2972 194° South 115 132 6,300 -467 Descending Boston Center
Sun 06:10:23 PM 41.1667 -74.3167 191° South 125 144 5,100 -607 Descending New York TRACON
Sun 06:11:23 PM 41.1333 -74.3333 201° Southwest 125 144 4,500 -600 Descending New York TRACON
Sun 06:12:23 PM 41.1000 -74.3333 180° South 136 157 3,900 -650 Descending New York TRACON
Sun 06:13:23 PM 41.0667 -74.3500 201° Southwest 126 145 3,200 -600 Descending New York TRACON
Sun 06:14:23 PM 41.0333 -74.3667 201° Southwest 130 150 2,700 -350 Descending New York TRACON
Sun 06:15:23 PM 41.0167 -74.3667 180° South 106 122 2,500 -53 Descending New York TRACON
Sun 06:16:17 PM 40.9833 -74.3833 201° Southwest 104 120 2,600 50 Climbing New York TRACON
Sun 06:17:23 PM 40.9500 -74.4000 201° Southwest 102 117 2,600 -48 Level New York TRACON
Sun 06:18:23 PM 40.9333 -74.4000 180° South 108 124 2,500 -300 Descending New York TRACON
Sun 06:19:23 PM 40.9000 -74.4000 180° South 114 131 2,000 -400 Descending New York TRACON
Sun 06:20:23 PM 40.8667 -74.4333 217° Southwest 115 132 1,700 -300 Descending New York TRACON
Sun 06:21:23 PM 40.8500 -74.4167 143° Southeast 104 120 1,400 -300 Descending New York TRACON
Sun 06:23:00 PM 40.8027 -74.4048 169° South  Level FlightAware Approximate
Sun 06:30:00 PM 40.7993 -74.4149 189° South  Level Estimated

Login

Don't have an account? Register now (free) for customized features, flight alerts, and more!